sensor_id;sensor_type;location;lat;lon;timestamp;temperature;humidity
69382;DHT22;56560;50.692;12.844;2023-04-24T00:01:32;11.60;83.40
69382;DHT22;56560;50.692;12.844;2023-04-24T00:03:59;11.70;83.40
69382;DHT22;56560;50.692;12.844;2023-04-24T00:06:25;11.70;83.60
69382;DHT22;56560;50.692;12.844;2023-04-24T00:08:59;11.70;84.00
69382;DHT22;56560;50.692;12.844;2023-04-24T00:11:25;11.70;83.60
69382;DHT22;56560;50.692;12.844;2023-04-24T00:13:51;11.60;83.20
69382;DHT22;56560;50.692;12.844;2023-04-24T00:16:17;11.60;83.10
69382;DHT22;56560;50.692;12.844;2023-04-24T00:18:42;11.60;83.50
69382;DHT22;56560;50.692;12.844;2023-04-24T00:21:10;11.50;83.00
69382;DHT22;56560;50.692;12.844;2023-04-24T00:23:36;11.50;82.60
69382;DHT22;56560;50.692;12.844;2023-04-24T00:26:02;11.50;82.80
69382;DHT22;56560;50.692;12.844;2023-04-24T00:28:27;11.50;82.80
69382;DHT22;56560;50.692;12.844;2023-04-24T00:30:53;11.50;82.80
69382;DHT22;56560;50.692;12.844;2023-04-24T00:33:19;11.50;82.60
69382;DHT22;56560;50.692;12.844;2023-04-24T00:35:45;11.50;82.60
69382;DHT22;56560;50.692;12.844;2023-04-24T00:38:11;11.50;82.40
69382;DHT22;56560;50.692;12.844;2023-04-24T00:40:36;11.50;82.60
69382;DHT22;56560;50.692;12.844;2023-04-24T00:43:02;11.40;82.80
69382;DHT22;56560;50.692;12.844;2023-04-24T00:45:28;11.30;83.10
69382;DHT22;56560;50.692;12.844;2023-04-24T00:47:53;11.30;82.90
69382;DHT22;56560;50.692;12.844;2023-04-24T00:50:21;11.20;82.60
69382;DHT22;56560;50.692;12.844;2023-04-24T00:52:47;11.20;83.00
69382;DHT22;56560;50.692;12.844;2023-04-24T00:55:12;11.20;83.00
69382;DHT22;56560;50.692;12.844;2023-04-24T00:57:38;11.10;83.30
69382;DHT22;56560;50.692;12.844;2023-04-24T01:00:05;11.10;83.60
69382;DHT22;56560;50.692;12.844;2023-04-24T01:02:31;11.00;83.00
69382;DHT22;56560;50.692;12.844;2023-04-24T01:05:00;11.00;82.90
69382;DHT22;56560;50.692;12.844;2023-04-24T01:07:26;11.00;82.60
69382;DHT22;56560;50.692;12.844;2023-04-24T01:09:52;11.10;83.00
69382;DHT22;56560;50.692;12.844;2023-04-24T01:12:19;11.00;82.60
69382;DHT22;56560;50.692;12.844;2023-04-24T01:14:45;11.00;82.60
69382;DHT22;56560;50.692;12.844;2023-04-24T01:17:10;11.00;82.50
69382;DHT22;56560;50.692;12.844;2023-04-24T01:19:37;11.00;82.50
69382;DHT22;56560;50.692;12.844;2023-04-24T01:22:08;11.00;82.60
69382;DHT22;56560;50.692;12.844;2023-04-24T01:24:35;11.00;82.50
69382;DHT22;56560;50.692;12.844;2023-04-24T01:27:02;11.00;82.70
69382;DHT22;56560;50.692;12.844;2023-04-24T01:29:27;11.00;82.60
69382;DHT22;56560;50.692;12.844;2023-04-24T01:31:53;11.00;82.60
69382;DHT22;56560;50.692;12.844;2023-04-24T01:34:20;11.00;82.10
69382;DHT22;56560;50.692;12.844;2023-04-24T01:36:46;11.00;82.50
69382;DHT22;56560;50.692;12.844;2023-04-24T01:39:12;11.00;82.00
69382;DHT22;56560;50.692;12.844;2023-04-24T01:41:38;11.00;82.30
69382;DHT22;56560;50.692;12.844;2023-04-24T01:44:04;11.00;81.40
69382;DHT22;56560;50.692;12.844;2023-04-24T01:46:29;11.00;81.70
69382;DHT22;56560;50.692;12.844;2023-04-24T01:48:59;11.00;81.60
69382;DHT22;56560;50.692;12.844;2023-04-24T01:51:25;11.00;81.60
69382;DHT22;56560;50.692;12.844;2023-04-24T01:53:51;11.00;81.70
69382;DHT22;56560;50.692;12.844;2023-04-24T01:56:16;11.00;81.30
69382;DHT22;56560;50.692;12.844;2023-04-24T01:58:43;11.00;81.10
69382;DHT22;56560;50.692;12.844;2023-04-24T02:01:09;11.10;81.40
69382;DHT22;56560;50.692;12.844;2023-04-24T02:03:40;11.00;81.50
69382;DHT22;56560;50.692;12.844;2023-04-24T02:06:06;11.00;81.80
69382;DHT22;56560;50.692;12.844;2023-04-24T02:08:31;11.00;81.50
69382;DHT22;56560;50.692;12.844;2023-04-24T02:10:57;11.00;81.30
69382;DHT22;56560;50.692;12.844;2023-04-24T02:13:22;10.90;81.40
69382;DHT22;56560;50.692;12.844;2023-04-24T02:15:48;10.90;81.40
69382;DHT22;56560;50.692;12.844;2023-04-24T02:18:14;10.90;81.20
69382;DHT22;56560;50.692;12.844;2023-04-24T02:20:40;10.90;81.20
69382;DHT22;56560;50.692;12.844;2023-04-24T02:23:06;10.90;81.10
69382;DHT22;56560;50.692;12.844;2023-04-24T02:25:32;10.80;81.40
69382;DHT22;56560;50.692;12.844;2023-04-24T02:27:58;10.80;81.60
69382;DHT22;56560;50.692;12.844;2023-04-24T02:30:24;10.70;81.40
69382;DHT22;56560;50.692;12.844;2023-04-24T02:32:50;10.70;81.70
69382;DHT22;56560;50.692;12.844;2023-04-24T02:35:15;10.60;81.80
69382;DHT22;56560;50.692;12.844;2023-04-24T02:37:41;10.50;81.80
69382;DHT22;56560;50.692;12.844;2023-04-24T02:40:07;10.50;82.10
69382;DHT22;56560;50.692;12.844;2023-04-24T02:42:33;10.40;82.40
69382;DHT22;56560;50.692;12.844;2023-04-24T02:44:59;10.40;82.20
69382;DHT22;56560;50.692;12.844;2023-04-24T02:47:24;10.40;82.10
69382;DHT22;56560;50.692;12.844;2023-04-24T02:49:50;10.40;81.70
69382;DHT22;56560;50.692;12.844;2023-04-24T02:52:15;10.40;81.90
69382;DHT22;56560;50.692;12.844;2023-04-24T02:54:42;10.40;82.20
69382;DHT22;56560;50.692;12.844;2023-04-24T02:57:08;10.30;82.30
69382;DHT22;56560;50.692;12.844;2023-04-24T02:59:33;10.30;82.30
69382;DHT22;56560;50.692;12.844;2023-04-24T03:01:59;10.20;82.70
69382;DHT22;56560;50.692;12.844;2023-04-24T03:04:25;10.10;82.80
69382;DHT22;56560;50.692;12.844;2023-04-24T03:06:51;10.10;82.90
69382;DHT22;56560;50.692;12.844;2023-04-24T03:09:20;10.10;83.10
69382;DHT22;56560;50.692;12.844;2023-04-24T03:11:46;10.10;83.50
69382;DHT22;56560;50.692;12.844;2023-04-24T03:14:11;10.00;83.40
69382;DHT22;56560;50.692;12.844;2023-04-24T03:16:37;10.00;83.20
69382;DHT22;56560;50.692;12.844;2023-04-24T03:19:03;10.00;83.40
69382;DHT22;56560;50.692;12.844;2023-04-24T03:21:28;10.00;83.20
69382;DHT22;56560;50.692;12.844;2023-04-24T03:23:54;10.00;83.40
69382;DHT22;56560;50.692;12.844;2023-04-24T03:26:20;10.00;83.40
69382;DHT22;56560;50.692;12.844;2023-04-24T03:28:45;10.00;83.40
69382;DHT22;56560;50.692;12.844;2023-04-24T03:31:11;10.00;83.20
69382;DHT22;56560;50.692;12.844;2023-04-24T03:33:36;10.00;83.20
69382;DHT22;56560;50.692;12.844;2023-04-24T03:36:02;10.00;83.00
69382;DHT22;56560;50.692;12.844;2023-04-24T03:38:28;10.00;83.20
69382;DHT22;56560;50.692;12.844;2023-04-24T03:40:54;10.00;83.40
69382;DHT22;56560;50.692;12.844;2023-04-24T03:43:20;10.00;83.10
69382;DHT22;56560;50.692;12.844;2023-04-24T03:45:45;9.90;83.50
69382;DHT22;56560;50.692;12.844;2023-04-24T03:48:11;10.00;83.20
69382;DHT22;56560;50.692;12.844;2023-04-24T03:50:36;10.00;83.20
69382;DHT22;56560;50.692;12.844;2023-04-24T03:53:02;10.00;83.00
69382;DHT22;56560;50.692;12.844;2023-04-24T03:55:28;10.00;82.50
69382;DHT22;56560;50.692;12.844;2023-04-24T03:57:53;10.10;82.30
69382;DHT22;56560;50.692;12.844;2023-04-24T04:00:19;10.10;82.10
69382;DHT22;56560;50.692;12.844;2023-04-24T04:02:46;10.10;82.50
69382;DHT22;56560;50.692;12.844;2023-04-24T04:05:12;10.10;82.60
69382;DHT22;56560;50.692;12.844;2023-04-24T04:07:37;10.20;82.70
69382;DHT22;56560;50.692;12.844;2023-04-24T04:10:03;10.10;82.20
69382;DHT22;56560;50.692;12.844;2023-04-24T04:12:32;10.10;82.30
69382;DHT22;56560;50.692;12.844;2023-04-24T04:15:03;10.10;82.40
69382;DHT22;56560;50.692;12.844;2023-04-24T04:17:29;10.20;82.10
69382;DHT22;56560;50.692;12.844;2023-04-24T04:19:55;10.20;81.80
69382;DHT22;56560;50.692;12.844;2023-04-24T04:22:21;10.20;81.70
69382;DHT22;56560;50.692;12.844;2023-04-24T04:24:47;10.30;81.60
69382;DHT22;56560;50.692;12.844;2023-04-24T04:27:13;10.30;80.90
69382;DHT22;56560;50.692;12.844;2023-04-24T04:29:38;10.30;81.40
69382;DHT22;56560;50.692;12.844;2023-04-24T04:32:05;10.30;80.80
69382;DHT22;56560;50.692;12.844;2023-04-24T04:34:31;10.30;81.30
69382;DHT22;56560;50.692;12.844;2023-04-24T04:36:57;10.40;80.90
69382;DHT22;56560;50.692;12.844;2023-04-24T04:39:27;10.50;80.80
69382;DHT22;56560;50.692;12.844;2023-04-24T04:41:53;10.60;80.40
69382;DHT22;56560;50.692;12.844;2023-04-24T04:44:19;10.60;80.50
69382;DHT22;56560;50.692;12.844;2023-04-24T04:46:45;10.70;80.50
69382;DHT22;56560;50.692;12.844;2023-04-24T04:49:11;10.70;80.40
69382;DHT22;56560;50.692;12.844;2023-04-24T04:51:37;10.80;80.20
69382;DHT22;56560;50.692;12.844;2023-04-24T04:54:02;10.80;80.20
69382;DHT22;56560;50.692;12.844;2023-04-24T04:56:28;11.00;79.70
69382;DHT22;56560;50.692;12.844;2023-04-24T04:58:53;11.10;78.60
69382;DHT22;56560;50.692;12.844;2023-04-24T05:01:19;11.20;78.10
69382;DHT22;56560;50.692;12.844;2023-04-24T05:03:45;11.30;77.50
69382;DHT22;56560;50.692;12.844;2023-04-24T05:06:10;11.50;76.60
69382;DHT22;56560;50.692;12.844;2023-04-24T05:08:36;11.60;76.00
69382;DHT22;56560;50.692;12.844;2023-04-24T05:11:02;11.70;75.30
69382;DHT22;56560;50.692;12.844;2023-04-24T05:13:28;11.80;75.20
69382;DHT22;56560;50.692;12.844;2023-04-24T05:15:53;12.00;75.00
69382;DHT22;56560;50.692;12.844;2023-04-24T05:18:19;12.00;74.20
69382;DHT22;56560;50.692;12.844;2023-04-24T05:20:46;12.00;74.00
69382;DHT22;56560;50.692;12.844;2023-04-24T05:23:11;12.00;74.00
69382;DHT22;56560;50.692;12.844;2023-04-24T05:25:37;11.90;73.30
69382;DHT22;56560;50.692;12.844;2023-04-24T05:28:04;11.90;73.50
69382;DHT22;56560;50.692;12.844;2023-04-24T05:30:30;11.80;74.50
69382;DHT22;56560;50.692;12.844;2023-04-24T05:32:56;11.90;73.40
69382;DHT22;56560;50.692;12.844;2023-04-24T05:35:21;11.90;73.40
69382;DHT22;56560;50.692;12.844;2023-04-24T05:37:47;12.00;73.20
69382;DHT22;56560;50.692;12.844;2023-04-24T05:40:13;11.90;73.10
69382;DHT22;56560;50.692;12.844;2023-04-24T05:42:38;12.00;72.60
69382;DHT22;56560;50.692;12.844;2023-04-24T05:45:04;12.10;72.30
69382;DHT22;56560;50.692;12.844;2023-04-24T05:47:30;12.20;72.30
69382;DHT22;56560;50.692;12.844;2023-04-24T05:49:56;12.30;72.40
69382;DHT22;56560;50.692;12.844;2023-04-24T05:52:21;12.20;71.50
69382;DHT22;56560;50.692;12.844;2023-04-24T05:54:47;12.20;71.60
69382;DHT22;56560;50.692;12.844;2023-04-24T05:57:13;12.20;72.00
69382;DHT22;56560;50.692;12.844;2023-04-24T05:59:40;12.20;72.00
69382;DHT22;56560;50.692;12.844;2023-04-24T06:02:06;12.30;72.30
69382;DHT22;56560;50.692;12.844;2023-04-24T06:04:33;12.40;70.70
69382;DHT22;56560;50.692;12.844;2023-04-24T06:06:59;12.30;70.80
69382;DHT22;56560;50.692;12.844;2023-04-24T06:09:25;12.40;71.30
69382;DHT22;56560;50.692;12.844;2023-04-24T06:11:51;12.50;71.10
69382;DHT22;56560;50.692;12.844;2023-04-24T06:14:20;12.60;70.50
69382;DHT22;56560;50.692;12.844;2023-04-24T06:16:46;12.60;71.10
69382;DHT22;56560;50.692;12.844;2023-04-24T06:19:12;12.50;70.20
69382;DHT22;56560;50.692;12.844;2023-04-24T06:21:37;12.40;71.00
69382;DHT22;56560;50.692;12.844;2023-04-24T06:24:03;12.50;70.70
69382;DHT22;56560;50.692;12.844;2023-04-24T06:26:29;12.50;70.50
69382;DHT22;56560;50.692;12.844;2023-04-24T06:28:55;12.60;69.60
69382;DHT22;56560;50.692;12.844;2023-04-24T06:31:21;12.60;69.90
69382;DHT22;56560;50.692;12.844;2023-04-24T06:33:48;12.70;70.20
69382;DHT22;56560;50.692;12.844;2023-04-24T06:36:15;12.80;69.20
69382;DHT22;56560;50.692;12.844;2023-04-24T06:38:41;12.90;69.10
69382;DHT22;56560;50.692;12.844;2023-04-24T06:41:07;13.00;68.50
69382;DHT22;56560;50.692;12.844;2023-04-24T06:43:33;12.90;68.60
69382;DHT22;56560;50.692;12.844;2023-04-24T06:45:59;12.90;68.70
69382;DHT22;56560;50.692;12.844;2023-04-24T06:48:26;12.80;69.00
69382;DHT22;56560;50.692;12.844;2023-04-24T06:50:52;12.80;68.50
69382;DHT22;56560;50.692;12.844;2023-04-24T06:53:18;12.70;69.10
69382;DHT22;56560;50.692;12.844;2023-04-24T06:55:43;12.70;69.40
69382;DHT22;56560;50.692;12.844;2023-04-24T06:58:11;12.60;69.90
69382;DHT22;56560;50.692;12.844;2023-04-24T07:00:37;12.70;69.20
69382;DHT22;56560;50.692;12.844;2023-04-24T07:03:03;12.60;69.60
69382;DHT22;56560;50.692;12.844;2023-04-24T07:05:31;12.70;69.60
69382;DHT22;56560;50.692;12.844;2023-04-24T07:07:56;12.80;68.90
69382;DHT22;56560;50.692;12.844;2023-04-24T07:10:24;12.70;69.00
69382;DHT22;56560;50.692;12.844;2023-04-24T07:12:50;12.80;68.90
69382;DHT22;56560;50.692;12.844;2023-04-24T07:15:15;12.80;68.70
69382;DHT22;56560;50.692;12.844;2023-04-24T07:17:41;12.90;68.30
69382;DHT22;56560;50.692;12.844;2023-04-24T07:20:10;12.90;68.30
69382;DHT22;56560;50.692;12.844;2023-04-24T07:22:39;12.80;68.60
69382;DHT22;56560;50.692;12.844;2023-04-24T07:25:06;12.80;68.60
69382;DHT22;56560;50.692;12.844;2023-04-24T07:27:33;12.80;68.40
69382;DHT22;56560;50.692;12.844;2023-04-24T07:29:59;12.90;68.10
69382;DHT22;56560;50.692;12.844;2023-04-24T07:32:25;12.70;67.90
69382;DHT22;56560;50.692;12.844;2023-04-24T07:34:50;12.60;67.50
69382;DHT22;56560;50.692;12.844;2023-04-24T07:37:16;12.70;66.30
69382;DHT22;56560;50.692;12.844;2023-04-24T07:39:42;12.70;67.10
69382;DHT22;56560;50.692;12.844;2023-04-24T07:42:07;12.90;65.20
69382;DHT22;56560;50.692;12.844;2023-04-24T07:44:33;13.00;65.60
69382;DHT22;56560;50.692;12.844;2023-04-24T07:46:59;13.20;65.30
69382;DHT22;56560;50.692;12.844;2023-04-24T07:49:25;13.40;64.10
69382;DHT22;56560;50.692;12.844;2023-04-24T07:51:50;13.50;65.00
69382;DHT22;56560;50.692;12.844;2023-04-24T07:54:16;13.40;63.20
69382;DHT22;56560;50.692;12.844;2023-04-24T07:56:43;13.40;63.30
69382;DHT22;56560;50.692;12.844;2023-04-24T07:59:09;13.60;63.60
69382;DHT22;56560;50.692;12.844;2023-04-24T08:01:36;13.90;63.80
69382;DHT22;56560;50.692;12.844;2023-04-24T08:04:02;14.00;63.00
69382;DHT22;56560;50.692;12.844;2023-04-24T08:06:28;14.10;62.40
69382;DHT22;56560;50.692;12.844;2023-04-24T08:08:56;14.20;61.80
69382;DHT22;56560;50.692;12.844;2023-04-24T08:11:22;14.20;60.90
69382;DHT22;56560;50.692;12.844;2023-04-24T08:13:47;14.10;61.70
69382;DHT22;56560;50.692;12.844;2023-04-24T08:16:13;13.90;62.10
69382;DHT22;56560;50.692;12.844;2023-04-24T08:18:39;13.80;61.90
69382;DHT22;56560;50.692;12.844;2023-04-24T08:21:05;13.90;62.30
69382;DHT22;56560;50.692;12.844;2023-04-24T08:23:30;14.10;61.20
69382;DHT22;56560;50.692;12.844;2023-04-24T08:25:56;14.30;60.60
69382;DHT22;56560;50.692;12.844;2023-04-24T08:28:23;14.20;60.40
69382;DHT22;56560;50.692;12.844;2023-04-24T08:30:49;14.00;61.80
69382;DHT22;56560;50.692;12.844;2023-04-24T08:33:22;14.00;61.40
69382;DHT22;56560;50.692;12.844;2023-04-24T08:35:48;14.10;61.20
69382;DHT22;56560;50.692;12.844;2023-04-24T08:38:14;14.50;61.10
69382;DHT22;56560;50.692;12.844;2023-04-24T08:40:40;14.90;59.80
69382;DHT22;56560;50.692;12.844;2023-04-24T08:43:06;15.30;58.40
69382;DHT22;56560;50.692;12.844;2023-04-24T08:45:33;15.10;57.90
69382;DHT22;56560;50.692;12.844;2023-04-24T08:47:59;14.90;58.30
69382;DHT22;56560;50.692;12.844;2023-04-24T08:50:25;14.70;58.70
69382;DHT22;56560;50.692;12.844;2023-04-24T08:52:51;14.50;59.30
69382;DHT22;56560;50.692;12.844;2023-04-24T08:55:19;14.60;60.00
69382;DHT22;56560;50.692;12.844;2023-04-24T08:57:52;14.80;59.10
69382;DHT22;56560;50.692;12.844;2023-04-24T09:00:19;14.70;59.20
69382;DHT22;56560;50.692;12.844;2023-04-24T09:02:47;14.60;59.30
69382;DHT22;56560;50.692;12.844;2023-04-24T09:05:14;14.60;59.80
69382;DHT22;56560;50.692;12.844;2023-04-24T09:07:44;14.50;60.20
69382;DHT22;56560;50.692;12.844;2023-04-24T09:10:10;14.30;60.20
69382;DHT22;56560;50.692;12.844;2023-04-24T09:12:36;14.20;60.90
69382;DHT22;56560;50.692;12.844;2023-04-24T09:15:02;14.30;61.40
69382;DHT22;56560;50.692;12.844;2023-04-24T09:17:31;14.40;60.70
69382;DHT22;56560;50.692;12.844;2023-04-24T09:19:57;14.30;61.30
69382;DHT22;56560;50.692;12.844;2023-04-24T09:22:23;14.10;61.80
69382;DHT22;56560;50.692;12.844;2023-04-24T09:25:01;14.10;62.10
69382;DHT22;56560;50.692;12.844;2023-04-24T09:27:38;13.90;61.80
69382;DHT22;56560;50.692;12.844;2023-04-24T09:30:07;13.90;62.70
69382;DHT22;56560;50.692;12.844;2023-04-24T09:32:33;13.70;62.40
69382;DHT22;56560;50.692;12.844;2023-04-24T09:35:12;13.30;63.00
69382;DHT22;56560;50.692;12.844;2023-04-24T09:37:45;13.20;64.00
69382;DHT22;56560;50.692;12.844;2023-04-24T09:40:21;13.00;64.50
69382;DHT22;56560;50.692;12.844;2023-04-24T09:42:56;13.20;64.60
69382;DHT22;56560;50.692;12.844;2023-04-24T09:45:28;13.60;63.20
69382;DHT22;56560;50.692;12.844;2023-04-24T09:47:55;14.40;62.20
69382;DHT22;56560;50.692;12.844;2023-04-24T09:50:21;15.20;58.90
69382;DHT22;56560;50.692;12.844;2023-04-24T09:53:08;15.80;57.60
69382;DHT22;56560;50.692;12.844;2023-04-24T09:55:39;16.40;55.50
69382;DHT22;56560;50.692;12.844;2023-04-24T09:58:08;16.30;55.40
69382;DHT22;56560;50.692;12.844;2023-04-24T10:00:34;16.00;54.10
69382;DHT22;56560;50.692;12.844;2023-04-24T10:03:01;15.70;56.40
69382;DHT22;56560;50.692;12.844;2023-04-24T10:08:06;15.00;57.60
69382;DHT22;56560;50.692;12.844;2023-04-24T10:10:33;15.10;57.60
69382;DHT22;56560;50.692;12.844;2023-04-24T10:13:04;15.20;55.80
69382;DHT22;56560;50.692;12.844;2023-04-24T10:15:30;15.60;55.50
69382;DHT22;56560;50.692;12.844;2023-04-24T10:18:00;16.00;53.90
69382;DHT22;56560;50.692;12.844;2023-04-24T10:20:30;16.50;52.20
69382;DHT22;56560;50.692;12.844;2023-04-24T10:22:58;17.00;50.80
69382;DHT22;56560;50.692;12.844;2023-04-24T10:25:28;17.10;49.80
69382;DHT22;56560;50.692;12.844;2023-04-24T10:27:54;17.00;49.00
69382;DHT22;56560;50.692;12.844;2023-04-24T10:30:29;17.30;46.70
69382;DHT22;56560;50.692;12.844;2023-04-24T10:32:55;17.60;45.90
69382;DHT22;56560;50.692;12.844;2023-04-24T10:35:22;17.60;44.60
69382;DHT22;56560;50.692;12.844;2023-04-24T10:37:55;17.50;44.10
69382;DHT22;56560;50.692;12.844;2023-04-24T10:40:32;17.40;44.40
69382;DHT22;56560;50.692;12.844;2023-04-24T10:42:59;17.40;44.70
69382;DHT22;56560;50.692;12.844;2023-04-24T10:45:25;17.40;44.50
69382;DHT22;56560;50.692;12.844;2023-04-24T10:48:11;17.50;44.70
69382;DHT22;56560;50.692;12.844;2023-04-24T10:50:45;17.50;44.30
69382;DHT22;56560;50.692;12.844;2023-04-24T10:53:27;17.30;43.40
69382;DHT22;56560;50.692;12.844;2023-04-24T10:56:07;17.10;44.40
69382;DHT22;56560;50.692;12.844;2023-04-24T10:58:45;17.00;45.00
69382;DHT22;56560;50.692;12.844;2023-04-24T11:01:25;16.80;44.80
69382;DHT22;56560;50.692;12.844;2023-04-24T11:03:58;17.30;43.80
69382;DHT22;56560;50.692;12.844;2023-04-24T11:06:35;17.50;43.10
69382;DHT22;56560;50.692;12.844;2023-04-24T11:09:07;17.70;43.20
69382;DHT22;56560;50.692;12.844;2023-04-24T11:11:34;18.10;42.70
69382;DHT22;56560;50.692;12.844;2023-04-24T11:14:00;18.40;42.80
69382;DHT22;56560;50.692;12.844;2023-04-24T11:16:34;18.20;41.20
69382;DHT22;56560;50.692;12.844;2023-04-24T11:21:42;17.40;42.50
69382;DHT22;56560;50.692;12.844;2023-04-24T11:25:09;17.20;43.20
69382;DHT22;56560;50.692;12.844;2023-04-24T11:27:16;16.90;44.10
69382;DHT22;56560;50.692;12.844;2023-04-24T11:37:26;17.20;43.80
69382;DHT22;56560;50.692;12.844;2023-04-24T11:39:56;17.00;43.90
69382;DHT22;56560;50.692;12.844;2023-04-24T11:42:25;17.00;43.70
69382;DHT22;56560;50.692;12.844;2023-04-24T11:44:55;17.50;44.30
69382;DHT22;56560;50.692;12.844;2023-04-24T11:47:30;18.30;42.80
69382;DHT22;56560;50.692;12.844;2023-04-24T11:49:59;19.00;39.80
69382;DHT22;56560;50.692;12.844;2023-04-24T11:52:25;18.40;39.90
69382;DHT22;56560;50.692;12.844;2023-04-24T11:54:51;18.30;40.30
69382;DHT22;56560;50.692;12.844;2023-04-24T11:57:20;18.60;39.40
69382;DHT22;56560;50.692;12.844;2023-04-24T11:59:47;18.50;39.20
69382;DHT22;56560;50.692;12.844;2023-04-24T12:02:22;18.20;39.20
69382;DHT22;56560;50.692;12.844;2023-04-24T12:04:49;17.90;39.30
69382;DHT22;56560;50.692;12.844;2023-04-24T12:07:14;17.70;39.10
69382;DHT22;56560;50.692;12.844;2023-04-24T12:09:44;17.30;40.10
69382;DHT22;56560;50.692;12.844;2023-04-24T12:12:15;17.20;40.30
69382;DHT22;56560;50.692;12.844;2023-04-24T12:14:48;17.00;41.10
69382;DHT22;56560;50.692;12.844;2023-04-24T12:17:14;17.30;40.40
69382;DHT22;56560;50.692;12.844;2023-04-24T12:19:46;17.60;40.10
69382;DHT22;56560;50.692;12.844;2023-04-24T12:22:12;17.70;39.80
69382;DHT22;56560;50.692;12.844;2023-04-24T12:24:56;17.80;40.30
69382;DHT22;56560;50.692;12.844;2023-04-24T12:27:22;19.40;38.70
69382;DHT22;56560;50.692;12.844;2023-04-24T12:29:58;19.80;35.90
69382;DHT22;56560;50.692;12.844;2023-04-24T12:32:24;19.00;37.40
69382;DHT22;56560;50.692;12.844;2023-04-24T12:34:54;18.10;38.80
69382;DHT22;56560;50.692;12.844;2023-04-24T12:37:20;18.60;39.10
69382;DHT22;56560;50.692;12.844;2023-04-24T12:39:59;19.50;37.40
69382;DHT22;56560;50.692;12.844;2023-04-24T12:42:27;20.00;36.60
69382;DHT22;56560;50.692;12.844;2023-04-24T12:44:56;19.70;36.90
69382;DHT22;56560;50.692;12.844;2023-04-24T12:47:23;19.40;38.10
69382;DHT22;56560;50.692;12.844;2023-04-24T12:49:49;18.90;38.30
69382;DHT22;56560;50.692;12.844;2023-04-24T12:52:16;18.60;38.70
69382;DHT22;56560;50.692;12.844;2023-04-24T12:54:45;18.90;37.20
69382;DHT22;56560;50.692;12.844;2023-04-24T12:57:11;18.60;37.90
69382;DHT22;56560;50.692;12.844;2023-04-24T12:59:37;18.30;38.80
69382;DHT22;56560;50.692;12.844;2023-04-24T13:02:02;18.50;38.20
69382;DHT22;56560;50.692;12.844;2023-04-24T13:04:28;19.70;37.60
69382;DHT22;56560;50.692;12.844;2023-04-24T13:06:53;21.00;36.00
69382;DHT22;56560;50.692;12.844;2023-04-24T13:09:19;21.20;35.10
69382;DHT22;56560;50.692;12.844;2023-04-24T13:11:52;21.00;36.20
69382;DHT22;56560;50.692;12.844;2023-04-24T13:14:20;22.00;35.40
69382;DHT22;56560;50.692;12.844;2023-04-24T13:16:46;21.30;35.90
69382;DHT22;56560;50.692;12.844;2023-04-24T13:19:12;21.40;36.30
69382;DHT22;56560;50.692;12.844;2023-04-24T13:21:37;21.30;36.70
69382;DHT22;56560;50.692;12.844;2023-04-24T13:24:06;20.70;37.00
69382;DHT22;56560;50.692;12.844;2023-04-24T13:26:33;20.00;37.40
69382;DHT22;56560;50.692;12.844;2023-04-24T13:28:59;20.00;37.90
69382;DHT22;56560;50.692;12.844;2023-04-24T13:31:24;19.80;36.80
69382;DHT22;56560;50.692;12.844;2023-04-24T13:33:50;19.80;36.40
69382;DHT22;56560;50.692;12.844;2023-04-24T13:36:16;19.30;37.40
69382;DHT22;56560;50.692;12.844;2023-04-24T13:38:43;18.90;37.90
69382;DHT22;56560;50.692;12.844;2023-04-24T13:41:09;18.30;39.00
69382;DHT22;56560;50.692;12.844;2023-04-24T13:43:35;17.60;40.40
69382;DHT22;56560;50.692;12.844;2023-04-24T13:46:01;17.10;41.30
69382;DHT22;56560;50.692;12.844;2023-04-24T13:48:28;16.70;41.80
69382;DHT22;56560;50.692;12.844;2023-04-24T13:50:54;16.90;42.00
69382;DHT22;56560;50.692;12.844;2023-04-24T13:53:20;17.60;41.20
69382;DHT22;56560;50.692;12.844;2023-04-24T13:55:45;18.30;40.60
69382;DHT22;56560;50.692;12.844;2023-04-24T13:58:11;18.60;39.60
69382;DHT22;56560;50.692;12.844;2023-04-24T14:00:37;18.40;39.30
69382;DHT22;56560;50.692;12.844;2023-04-24T14:03:03;18.00;39.80
69382;DHT22;56560;50.692;12.844;2023-04-24T14:05:29;18.00;40.50
69382;DHT22;56560;50.692;12.844;2023-04-24T14:07:54;18.40;40.30
69382;DHT22;56560;50.692;12.844;2023-04-24T14:10:20;18.80;39.10
69382;DHT22;56560;50.692;12.844;2023-04-24T14:12:46;19.00;38.50
69382;DHT22;56560;50.692;12.844;2023-04-24T14:15:11;19.30;38.90
69382;DHT22;56560;50.692;12.844;2023-04-24T14:17:38;19.40;38.70
69382;DHT22;56560;50.692;12.844;2023-04-24T14:20:05;18.80;39.40
69382;DHT22;56560;50.692;12.844;2023-04-24T14:22:31;18.50;40.50
69382;DHT22;56560;50.692;12.844;2023-04-24T14:24:56;18.20;40.40
69382;DHT22;56560;50.692;12.844;2023-04-24T14:27:24;17.30;41.60
69382;DHT22;56560;50.692;12.844;2023-04-24T14:29:51;16.40;43.60
69382;DHT22;56560;50.692;12.844;2023-04-24T14:32:17;15.90;44.30
69382;DHT22;56560;50.692;12.844;2023-04-24T14:34:42;15.90;44.70
69382;DHT22;56560;50.692;12.844;2023-04-24T14:37:08;15.50;45.40
69382;DHT22;56560;50.692;12.844;2023-04-24T14:39:34;15.20;45.90
69382;DHT22;56560;50.692;12.844;2023-04-24T14:42:00;15.20;46.20
69382;DHT22;56560;50.692;12.844;2023-04-24T14:44:26;15.00;46.70
69382;DHT22;56560;50.692;12.844;2023-04-24T14:46:52;14.80;47.50
69382;DHT22;56560;50.692;12.844;2023-04-24T14:49:18;14.90;47.30
69382;DHT22;56560;50.692;12.844;2023-04-24T14:51:44;15.20;47.00
69382;DHT22;56560;50.692;12.844;2023-04-24T14:54:09;15.70;46.50
69382;DHT22;56560;50.692;12.844;2023-04-24T14:56:35;15.70;46.20
69382;DHT22;56560;50.692;12.844;2023-04-24T14:59:01;15.60;45.80
69382;DHT22;56560;50.692;12.844;2023-04-24T15:01:27;15.30;46.50
69382;DHT22;56560;50.692;12.844;2023-04-24T15:03:53;15.10;47.10
69382;DHT22;56560;50.692;12.844;2023-04-24T15:06:18;14.90;47.50
69382;DHT22;56560;50.692;12.844;2023-04-24T15:08:45;14.80;48.50
69382;DHT22;56560;50.692;12.844;2023-04-24T15:11:11;14.90;48.60
69382;DHT22;56560;50.692;12.844;2023-04-24T15:13:37;15.40;45.90
69382;DHT22;56560;50.692;12.844;2023-04-24T15:16:02;15.80;44.80
69382;DHT22;56560;50.692;12.844;2023-04-24T15:18:28;16.00;44.20
69382;DHT22;56560;50.692;12.844;2023-04-24T15:20:55;16.10;44.00
69382;DHT22;56560;50.692;12.844;2023-04-24T15:23:20;16.30;43.00
69382;DHT22;56560;50.692;12.844;2023-04-24T15:25:46;16.20;43.10
69382;DHT22;56560;50.692;12.844;2023-04-24T15:28:12;16.50;42.40